sensor_id;sensor_type;location;lat;lon;timestamp;P1;durP1;ratioP1;P2;durP2;ratioP2
4311;SDS011;2169;49.086;9.284;2023-06-14T00:01:57;4.37;;;3.90;;
4311;SDS011;2169;49.086;9.284;2023-06-14T00:04:24;3.40;;;2.37;;
4311;SDS011;2169;49.086;9.284;2023-06-14T00:06:51;2.57;;;2.37;;
4311;SDS011;2169;49.086;9.284;2023-06-14T00:09:19;2.60;;;2.40;;
4311;SDS011;2169;49.086;9.284;2023-06-14T00:11:46;3.17;;;2.47;;
4311;SDS011;2169;49.086;9.284;2023-06-14T00:14:12;2.53;;;2.33;;
4311;SDS011;2169;49.086;9.284;2023-06-14T00:16:39;2.20;;;2.03;;
4311;SDS011;2169;49.086;9.284;2023-06-14T00:19:07;5.17;;;2.30;;
4311;SDS011;2169;49.086;9.284;2023-06-14T00:21:35;3.07;;;2.47;;
4311;SDS011;2169;49.086;9.284;2023-06-14T00:24:03;1.80;;;1.70;;
4311;SDS011;2169;49.086;9.284;2023-06-14T00:26:31;3.20;;;2.07;;
4311;SDS011;2169;49.086;9.284;2023-06-14T00:28:58;4.43;;;2.67;;
4311;SDS011;2169;49.086;9.284;2023-06-14T00:31:25;7.40;;;2.20;;
4311;SDS011;2169;49.086;9.284;2023-06-14T00:33:52;19.33;;;3.00;;
4311;SDS011;2169;49.086;9.284;2023-06-14T00:36:19;3.17;;;2.87;;
4311;SDS011;2169;49.086;9.284;2023-06-14T00:38:45;6.70;;;2.70;;
4311;SDS011;2169;49.086;9.284;2023-06-14T00:41:12;4.20;;;2.23;;
4311;SDS011;2169;49.086;9.284;2023-06-14T00:43:40;8.37;;;2.33;;
4311;SDS011;2169;49.086;9.284;2023-06-14T00:46:07;6.90;;;3.00;;
4311;SDS011;2169;49.086;9.284;2023-06-14T00:48:34;4.53;;;1.97;;
4311;SDS011;2169;49.086;9.284;2023-06-14T00:51:03;4.23;;;2.43;;
4311;SDS011;2169;49.086;9.284;2023-06-14T00:53:30;1.90;;;1.80;;
4311;SDS011;2169;49.086;9.284;2023-06-14T00:55:59;2.50;;;2.30;;
4311;SDS011;2169;49.086;9.284;2023-06-14T00:58:26;4.00;;;2.87;;
4311;SDS011;2169;49.086;9.284;2023-06-14T01:00:55;2.87;;;1.97;;
4311;SDS011;2169;49.086;9.284;2023-06-14T01:03:22;3.07;;;2.03;;
4311;SDS011;2169;49.086;9.284;2023-06-14T01:05:50;2.97;;;2.77;;
4311;SDS011;2169;49.086;9.284;2023-06-14T01:08:28;2.40;;;2.20;;
4311;SDS011;2169;49.086;9.284;2023-06-14T01:11:05;1.93;;;1.73;;
4311;SDS011;2169;49.086;9.284;2023-06-14T01:13:39;3.00;;;2.43;;
4311;SDS011;2169;49.086;9.284;2023-06-14T01:16:10;2.20;;;2.10;;
4311;SDS011;2169;49.086;9.284;2023-06-14T01:18:37;3.60;;;2.87;;
4311;SDS011;2169;49.086;9.284;2023-06-14T01:21:19;3.70;;;2.73;;
4311;SDS011;2169;49.086;9.284;2023-06-14T01:23:48;2.87;;;2.67;;
4311;SDS011;2169;49.086;9.284;2023-06-14T01:26:17;3.17;;;2.87;;
4311;SDS011;2169;49.086;9.284;2023-06-14T01:28:45;5.10;;;2.40;;
4311;SDS011;2169;49.086;9.284;2023-06-14T01:31:17;5.53;;;2.73;;
4311;SDS011;2169;49.086;9.284;2023-06-14T01:33:46;10.50;;;2.40;;
4311;SDS011;2169;49.086;9.284;2023-06-14T01:36:15;2.77;;;2.23;;
4311;SDS011;2169;49.086;9.284;2023-06-14T01:38:44;4.37;;;2.47;;
4311;SDS011;2169;49.086;9.284;2023-06-14T01:41:14;8.37;;;2.17;;
4311;SDS011;2169;49.086;9.284;2023-06-14T01:43:42;2.90;;;2.77;;
4311;SDS011;2169;49.086;9.284;2023-06-14T01:46:09;3.40;;;2.60;;
4311;SDS011;2169;49.086;9.284;2023-06-14T01:48:36;5.37;;;2.93;;
4311;SDS011;2169;49.086;9.284;2023-06-14T01:51:03;2.93;;;2.50;;
4311;SDS011;2169;49.086;9.284;2023-06-14T01:53:30;2.37;;;2.10;;
4311;SDS011;2169;49.086;9.284;2023-06-14T01:55:57;4.00;;;2.30;;
4311;SDS011;2169;49.086;9.284;2023-06-14T01:58:25;2.50;;;2.27;;
4311;SDS011;2169;49.086;9.284;2023-06-14T02:00:52;2.80;;;2.70;;
4311;SDS011;2169;49.086;9.284;2023-06-14T02:03:20;2.83;;;2.50;;
4311;SDS011;2169;49.086;9.284;2023-06-14T02:05:48;3.03;;;2.73;;
4311;SDS011;2169;49.086;9.284;2023-06-14T02:08:15;2.80;;;2.40;;
4311;SDS011;2169;49.086;9.284;2023-06-14T02:10:41;3.40;;;2.23;;
4311;SDS011;2169;49.086;9.284;2023-06-14T02:13:08;2.93;;;2.70;;
4311;SDS011;2169;49.086;9.284;2023-06-14T02:15:36;2.43;;;1.93;;
4311;SDS011;2169;49.086;9.284;2023-06-14T02:18:03;3.00;;;2.20;;
4311;SDS011;2169;49.086;9.284;2023-06-14T02:20:30;7.63;;;4.77;;
4311;SDS011;2169;49.086;9.284;2023-06-14T02:22:57;2.80;;;2.30;;
4311;SDS011;2169;49.086;9.284;2023-06-14T02:25:24;3.40;;;3.10;;
4311;SDS011;2169;49.086;9.284;2023-06-14T02:27:52;4.10;;;3.53;;
4311;SDS011;2169;49.086;9.284;2023-06-14T02:30:19;2.40;;;1.90;;
4311;SDS011;2169;49.086;9.284;2023-06-14T02:32:47;2.30;;;2.10;;
4311;SDS011;2169;49.086;9.284;2023-06-14T02:35:16;4.80;;;2.43;;
4311;SDS011;2169;49.086;9.284;2023-06-14T02:37:43;5.07;;;3.30;;
4311;SDS011;2169;49.086;9.284;2023-06-14T02:40:10;3.10;;;2.43;;
4311;SDS011;2169;49.086;9.284;2023-06-14T02:42:37;2.30;;;2.10;;
4311;SDS011;2169;49.086;9.284;2023-06-14T02:45:04;5.40;;;2.10;;
4311;SDS011;2169;49.086;9.284;2023-06-14T02:47:32;4.40;;;3.77;;
4311;SDS011;2169;49.086;9.284;2023-06-14T02:50:00;7.13;;;3.60;;
4311;SDS011;2169;49.086;9.284;2023-06-14T02:52:27;8.13;;;3.00;;
4311;SDS011;2169;49.086;9.284;2023-06-14T02:54:54;2.40;;;2.20;;
4311;SDS011;2169;49.086;9.284;2023-06-14T02:57:21;3.37;;;3.03;;
4311;SDS011;2169;49.086;9.284;2023-06-14T02:59:48;3.43;;;2.87;;
4311;SDS011;2169;49.086;9.284;2023-06-14T03:02:15;2.33;;;2.13;;
4311;SDS011;2169;49.086;9.284;2023-06-14T03:04:42;8.43;;;3.17;;
4311;SDS011;2169;49.086;9.284;2023-06-14T03:07:10;14.30;;;3.90;;
4311;SDS011;2169;49.086;9.284;2023-06-14T03:09:38;2.57;;;2.37;;
4311;SDS011;2169;49.086;9.284;2023-06-14T03:12:06;3.00;;;2.43;;
4311;SDS011;2169;49.086;9.284;2023-06-14T03:14:34;2.93;;;2.70;;
4311;SDS011;2169;49.086;9.284;2023-06-14T03:17:01;4.43;;;2.90;;
4311;SDS011;2169;49.086;9.284;2023-06-14T03:19:29;9.40;;;3.43;;
4311;SDS011;2169;49.086;9.284;2023-06-14T03:21:56;5.30;;;2.80;;
4311;SDS011;2169;49.086;9.284;2023-06-14T03:24:25;4.90;;;2.50;;
4311;SDS011;2169;49.086;9.284;2023-06-14T03:26:53;4.10;;;2.63;;
4311;SDS011;2169;49.086;9.284;2023-06-14T03:29:20;3.33;;;3.03;;
4311;SDS011;2169;49.086;9.284;2023-06-14T03:31:56;7.70;;;3.37;;
4311;SDS011;2169;49.086;9.284;2023-06-14T03:34:24;2.63;;;2.23;;
4311;SDS011;2169;49.086;9.284;2023-06-14T03:36:50;7.07;;;2.50;;
4311;SDS011;2169;49.086;9.284;2023-06-14T03:39:17;2.10;;;1.97;;
4311;SDS011;2169;49.086;9.284;2023-06-14T03:41:46;5.33;;;2.97;;
4311;SDS011;2169;49.086;9.284;2023-06-14T03:44:14;5.83;;;4.10;;
4311;SDS011;2169;49.086;9.284;2023-06-14T03:46:42;3.07;;;2.43;;
4311;SDS011;2169;49.086;9.284;2023-06-14T03:49:09;4.77;;;4.37;;
4311;SDS011;2169;49.086;9.284;2023-06-14T03:51:36;4.07;;;3.20;;
4311;SDS011;2169;49.086;9.284;2023-06-14T03:54:04;3.20;;;2.80;;
4311;SDS011;2169;49.086;9.284;2023-06-14T03:56:32;9.60;;;4.23;;
4311;SDS011;2169;49.086;9.284;2023-06-14T03:59:00;4.90;;;3.67;;
4311;SDS011;2169;49.086;9.284;2023-06-14T04:01:27;6.20;;;3.03;;
4311;SDS011;2169;49.086;9.284;2023-06-14T04:03:54;3.67;;;3.23;;
4311;SDS011;2169;49.086;9.284;2023-06-14T04:06:22;4.00;;;2.50;;
4311;SDS011;2169;49.086;9.284;2023-06-14T04:08:57;2.70;;;2.50;;
4311;SDS011;2169;49.086;9.284;2023-06-14T04:11:28;4.10;;;2.70;;
4311;SDS011;2169;49.086;9.284;2023-06-14T04:13:55;3.67;;;2.53;;
4311;SDS011;2169;49.086;9.284;2023-06-14T04:16:23;5.70;;;3.90;;
4311;SDS011;2169;49.086;9.284;2023-06-14T04:18:50;2.83;;;2.57;;
4311;SDS011;2169;49.086;9.284;2023-06-14T04:21:17;14.30;;;3.37;;
4311;SDS011;2169;49.086;9.284;2023-06-14T04:23:44;4.10;;;3.53;;
4311;SDS011;2169;49.086;9.284;2023-06-14T04:26:11;5.00;;;4.60;;
4311;SDS011;2169;49.086;9.284;2023-06-14T04:28:38;9.13;;;4.20;;
4311;SDS011;2169;49.086;9.284;2023-06-14T04:31:05;3.90;;;3.43;;
4311;SDS011;2169;49.086;9.284;2023-06-14T04:33:34;5.63;;;4.77;;
4311;SDS011;2169;49.086;9.284;2023-06-14T04:36:07;6.77;;;2.77;;
4311;SDS011;2169;49.086;9.284;2023-06-14T04:38:35;4.40;;;2.90;;
4311;SDS011;2169;49.086;9.284;2023-06-14T04:41:01;3.30;;;3.03;;
4311;SDS011;2169;49.086;9.284;2023-06-14T04:43:28;8.33;;;3.57;;
4311;SDS011;2169;49.086;9.284;2023-06-14T04:45:56;3.50;;;3.30;;
4311;SDS011;2169;49.086;9.284;2023-06-14T04:48:23;7.17;;;4.67;;
4311;SDS011;2169;49.086;9.284;2023-06-14T04:50:51;9.40;;;3.93;;
4311;SDS011;2169;49.086;9.284;2023-06-14T04:53:19;5.50;;;4.73;;
4311;SDS011;2169;49.086;9.284;2023-06-14T04:55:47;6.67;;;3.90;;
4311;SDS011;2169;49.086;9.284;2023-06-14T04:58:15;6.43;;;4.07;;
4311;SDS011;2169;49.086;9.284;2023-06-14T05:00:42;4.20;;;3.80;;
4311;SDS011;2169;49.086;9.284;2023-06-14T05:03:09;4.10;;;3.83;;
4311;SDS011;2169;49.086;9.284;2023-06-14T05:05:38;5.27;;;3.40;;
4311;SDS011;2169;49.086;9.284;2023-06-14T05:08:07;3.60;;;3.17;;
4311;SDS011;2169;49.086;9.284;2023-06-14T05:10:34;3.70;;;3.50;;
4311;SDS011;2169;49.086;9.284;2023-06-14T05:13:01;5.00;;;4.50;;
4311;SDS011;2169;49.086;9.284;2023-06-14T05:15:28;4.27;;;3.87;;
4311;SDS011;2169;49.086;9.284;2023-06-14T05:17:55;6.80;;;4.60;;
4311;SDS011;2169;49.086;9.284;2023-06-14T05:20:22;5.17;;;4.67;;
4311;SDS011;2169;49.086;9.284;2023-06-14T05:22:49;3.77;;;3.57;;
4311;SDS011;2169;49.086;9.284;2023-06-14T05:25:19;3.23;;;2.90;;
4311;SDS011;2169;49.086;9.284;2023-06-14T05:27:46;4.07;;;3.40;;
4311;SDS011;2169;49.086;9.284;2023-06-14T05:30:13;3.57;;;3.27;;
4311;SDS011;2169;49.086;9.284;2023-06-14T05:32:41;10.27;;;3.77;;
4311;SDS011;2169;49.086;9.284;2023-06-14T05:35:08;8.50;;;5.43;;
4311;SDS011;2169;49.086;9.284;2023-06-14T05:37:35;5.47;;;3.57;;
4311;SDS011;2169;49.086;9.284;2023-06-14T05:40:02;4.67;;;4.27;;
4311;SDS011;2169;49.086;9.284;2023-06-14T05:42:32;7.53;;;3.17;;
4311;SDS011;2169;49.086;9.284;2023-06-14T05:44:59;3.13;;;2.93;;
4311;SDS011;2169;49.086;9.284;2023-06-14T05:47:25;4.77;;;3.80;;
4311;SDS011;2169;49.086;9.284;2023-06-14T05:49:52;8.40;;;4.13;;
4311;SDS011;2169;49.086;9.284;2023-06-14T05:52:19;5.83;;;3.57;;
4311;SDS011;2169;49.086;9.284;2023-06-14T05:54:46;9.13;;;3.53;;
4311;SDS011;2169;49.086;9.284;2023-06-14T05:57:14;10.10;;;3.60;;
4311;SDS011;2169;49.086;9.284;2023-06-14T05:59:42;5.50;;;4.07;;
4311;SDS011;2169;49.086;9.284;2023-06-14T06:02:09;5.43;;;3.87;;
4311;SDS011;2169;49.086;9.284;2023-06-14T06:04:35;5.10;;;3.50;;
4311;SDS011;2169;49.086;9.284;2023-06-14T06:07:02;6.83;;;3.93;;
4311;SDS011;2169;49.086;9.284;2023-06-14T06:09:30;4.40;;;4.00;;
4311;SDS011;2169;49.086;9.284;2023-06-14T06:11:57;8.10;;;3.10;;
4311;SDS011;2169;49.086;9.284;2023-06-14T06:14:23;4.47;;;4.00;;
4311;SDS011;2169;49.086;9.284;2023-06-14T06:16:51;7.20;;;4.63;;
4311;SDS011;2169;49.086;9.284;2023-06-14T06:19:18;4.50;;;3.70;;
4311;SDS011;2169;49.086;9.284;2023-06-14T06:21:45;4.63;;;4.00;;
4311;SDS011;2169;49.086;9.284;2023-06-14T06:24:12;3.60;;;3.30;;
4311;SDS011;2169;49.086;9.284;2023-06-14T06:26:39;5.70;;;3.23;;
4311;SDS011;2169;49.086;9.284;2023-06-14T06:29:06;3.70;;;3.50;;
4311;SDS011;2169;49.086;9.284;2023-06-14T06:31:32;3.70;;;3.10;;
4311;SDS011;2169;49.086;9.284;2023-06-14T06:34:00;3.67;;;3.37;;
4311;SDS011;2169;49.086;9.284;2023-06-14T06:36:27;5.40;;;2.93;;
4311;SDS011;2169;49.086;9.284;2023-06-14T06:38:54;8.90;;;5.27;;
4311;SDS011;2169;49.086;9.284;2023-06-14T06:41:21;6.10;;;3.57;;
4311;SDS011;2169;49.086;9.284;2023-06-14T06:43:48;5.40;;;3.53;;
4311;SDS011;2169;49.086;9.284;2023-06-14T06:46:14;5.67;;;4.37;;
4311;SDS011;2169;49.086;9.284;2023-06-14T06:48:43;3.80;;;3.50;;
4311;SDS011;2169;49.086;9.284;2023-06-14T06:51:11;3.70;;;3.30;;
4311;SDS011;2169;49.086;9.284;2023-06-14T06:53:38;5.00;;;4.50;;
4311;SDS011;2169;49.086;9.284;2023-06-14T06:56:08;8.43;;;3.77;;
4311;SDS011;2169;49.086;9.284;2023-06-14T06:58:34;7.67;;;3.90;;
4311;SDS011;2169;49.086;9.284;2023-06-14T07:01:01;3.03;;;2.83;;
4311;SDS011;2169;49.086;9.284;2023-06-14T07:03:28;4.10;;;3.10;;
4311;SDS011;2169;49.086;9.284;2023-06-14T07:05:55;3.90;;;3.50;;
4311;SDS011;2169;49.086;9.284;2023-06-14T07:08:23;4.30;;;2.87;;
4311;SDS011;2169;49.086;9.284;2023-06-14T07:10:50;7.90;;;3.10;;
4311;SDS011;2169;49.086;9.284;2023-06-14T07:13:16;5.00;;;3.47;;
4311;SDS011;2169;49.086;9.284;2023-06-14T07:15:44;4.13;;;3.73;;
4311;SDS011;2169;49.086;9.284;2023-06-14T07:18:11;7.73;;;4.80;;
4311;SDS011;2169;49.086;9.284;2023-06-14T07:20:38;4.80;;;4.23;;
4311;SDS011;2169;49.086;9.284;2023-06-14T07:23:05;5.87;;;3.40;;
4311;SDS011;2169;49.086;9.284;2023-06-14T07:25:33;8.93;;;4.40;;
4311;SDS011;2169;49.086;9.284;2023-06-14T07:28:00;4.03;;;3.83;;
4311;SDS011;2169;49.086;9.284;2023-06-14T07:30:27;4.07;;;3.77;;
4311;SDS011;2169;49.086;9.284;2023-06-14T07:32:55;7.10;;;3.60;;
4311;SDS011;2169;49.086;9.284;2023-06-14T07:35:21;4.30;;;3.80;;
4311;SDS011;2169;49.086;9.284;2023-06-14T07:37:48;2.97;;;2.77;;
4311;SDS011;2169;49.086;9.284;2023-06-14T07:40:15;3.50;;;3.20;;
4311;SDS011;2169;49.086;9.284;2023-06-14T07:42:43;3.07;;;2.83;;
4311;SDS011;2169;49.086;9.284;2023-06-14T07:45:11;3.57;;;3.10;;
4311;SDS011;2169;49.086;9.284;2023-06-14T07:47:38;5.60;;;2.80;;
4311;SDS011;2169;49.086;9.284;2023-06-14T07:50:05;3.73;;;3.43;;
4311;SDS011;2169;49.086;9.284;2023-06-14T07:52:33;3.47;;;3.17;;
4311;SDS011;2169;49.086;9.284;2023-06-14T07:54:59;3.27;;;3.00;;
4311;SDS011;2169;49.086;9.284;2023-06-14T07:57:26;3.70;;;3.40;;
4311;SDS011;2169;49.086;9.284;2023-06-14T07:59:57;5.47;;;3.73;;
4311;SDS011;2169;49.086;9.284;2023-06-14T08:02:24;4.90;;;2.67;;
4311;SDS011;2169;49.086;9.284;2023-06-14T08:04:51;4.60;;;2.30;;
4311;SDS011;2169;49.086;9.284;2023-06-14T08:07:17;7.03;;;3.10;;
4311;SDS011;2169;49.086;9.284;2023-06-14T08:09:45;2.67;;;2.57;;
4311;SDS011;2169;49.086;9.284;2023-06-14T08:12:11;6.30;;;3.33;;
4311;SDS011;2169;49.086;9.284;2023-06-14T08:14:38;3.10;;;2.90;;
4311;SDS011;2169;49.086;9.284;2023-06-14T08:17:07;3.77;;;2.60;;
4311;SDS011;2169;49.086;9.284;2023-06-14T08:19:34;4.63;;;3.10;;
4311;SDS011;2169;49.086;9.284;2023-06-14T08:22:01;4.27;;;3.87;;
4311;SDS011;2169;49.086;9.284;2023-06-14T08:24:28;4.10;;;3.30;;
4311;SDS011;2169;49.086;9.284;2023-06-14T08:26:55;4.10;;;3.43;;
4311;SDS011;2169;49.086;9.284;2023-06-14T08:29:26;5.50;;;3.20;;
4311;SDS011;2169;49.086;9.284;2023-06-14T08:31:54;7.33;;;3.30;;
4311;SDS011;2169;49.086;9.284;2023-06-14T08:34:23;6.30;;;3.30;;
4311;SDS011;2169;49.086;9.284;2023-06-14T08:36:49;6.60;;;3.90;;
4311;SDS011;2169;49.086;9.284;2023-06-14T08:39:16;5.10;;;4.27;;
4311;SDS011;2169;49.086;9.284;2023-06-14T08:41:43;5.57;;;3.93;;
4311;SDS011;2169;49.086;9.284;2023-06-14T08:44:12;6.00;;;3.43;;
4311;SDS011;2169;49.086;9.284;2023-06-14T08:46:39;3.20;;;2.90;;
4311;SDS011;2169;49.086;9.284;2023-06-14T08:49:07;3.53;;;3.30;;
4311;SDS011;2169;49.086;9.284;2023-06-14T08:51:38;3.50;;;2.93;;
4311;SDS011;2169;49.086;9.284;2023-06-14T08:54:05;6.30;;;3.57;;
4311;SDS011;2169;49.086;9.284;2023-06-14T08:56:33;3.47;;;2.70;;
4311;SDS011;2169;49.086;9.284;2023-06-14T08:59:00;3.23;;;2.60;;
4311;SDS011;2169;49.086;9.284;2023-06-14T09:01:29;11.87;;;3.57;;
4311;SDS011;2169;49.086;9.284;2023-06-14T09:03:56;5.40;;;3.47;;
4311;SDS011;2169;49.086;9.284;2023-06-14T09:06:24;3.93;;;2.77;;
4311;SDS011;2169;49.086;9.284;2023-06-14T09:08:54;4.53;;;3.57;;
4311;SDS011;2169;49.086;9.284;2023-06-14T09:11:22;2.70;;;2.50;;
4311;SDS011;2169;49.086;9.284;2023-06-14T09:13:51;3.20;;;2.90;;
4311;SDS011;2169;49.086;9.284;2023-06-14T09:16:18;5.00;;;2.97;;
4311;SDS011;2169;49.086;9.284;2023-06-14T09:18:45;3.17;;;2.97;;
4311;SDS011;2169;49.086;9.284;2023-06-14T09:21:13;4.07;;;2.80;;
4311;SDS011;2169;49.086;9.284;2023-06-14T09:23:41;3.30;;;3.00;;
4311;SDS011;2169;49.086;9.284;2023-06-14T09:26:11;3.90;;;2.87;;
4311;SDS011;2169;49.086;9.284;2023-06-14T09:28:40;3.27;;;2.97;;
4311;SDS011;2169;49.086;9.284;2023-06-14T09:31:08;2.70;;;2.50;;
4311;SDS011;2169;49.086;9.284;2023-06-14T09:33:36;4.20;;;3.90;;
4311;SDS011;2169;49.086;9.284;2023-06-14T09:36:03;3.43;;;3.00;;
4311;SDS011;2169;49.086;9.284;2023-06-14T09:38:30;4.97;;;3.47;;
4311;SDS011;2169;49.086;9.284;2023-06-14T09:40:57;3.13;;;2.83;;
4311;SDS011;2169;49.086;9.284;2023-06-14T09:43:26;4.00;;;2.70;;
4311;SDS011;2169;49.086;9.284;2023-06-14T09:45:53;3.43;;;2.60;;
4311;SDS011;2169;49.086;9.284;2023-06-14T09:48:20;4.67;;;2.63;;
4311;SDS011;2169;49.086;9.284;2023-06-14T09:50:47;3.53;;;2.53;;
4311;SDS011;2169;49.086;9.284;2023-06-14T09:53:16;2.50;;;2.30;;
4311;SDS011;2169;49.086;9.284;2023-06-14T09:55:47;6.90;;;3.20;;
4311;SDS011;2169;49.086;9.284;2023-06-14T09:58:16;4.00;;;2.30;;
4311;SDS011;2169;49.086;9.284;2023-06-14T10:00:45;5.40;;;2.23;;
4311;SDS011;2169;49.086;9.284;2023-06-14T10:03:19;2.37;;;2.07;;
4311;SDS011;2169;49.086;9.284;2023-06-14T10:05:50;2.93;;;2.40;;
4311;SDS011;2169;49.086;9.284;2023-06-14T10:08:17;4.03;;;2.23;;
4311;SDS011;2169;49.086;9.284;2023-06-14T10:10:45;4.30;;;2.37;;
4311;SDS011;2169;49.086;9.284;2023-06-14T10:13:12;9.93;;;2.60;;
4311;SDS011;2169;49.086;9.284;2023-06-14T10:15:41;4.50;;;1.67;;
4311;SDS011;2169;49.086;9.284;2023-06-14T10:18:17;2.93;;;2.73;;
4311;SDS011;2169;49.086;9.284;2023-06-14T10:20:51;1.97;;;1.87;;
4311;SDS011;2169;49.086;9.284;2023-06-14T10:23:24;1.30;;;1.20;;
4311;SDS011;2169;49.086;9.284;2023-06-14T10:25:54;2.10;;;1.97;;
4311;SDS011;2169;49.086;9.284;2023-06-14T10:28:24;3.77;;;2.57;;
4311;SDS011;2169;49.086;9.284;2023-06-14T10:31:02;2.27;;;2.07;;
4311;SDS011;2169;49.086;9.284;2023-06-14T10:33:30;21.83;;;3.70;;
4311;SDS011;2169;49.086;9.284;2023-06-14T10:36:07;4.63;;;2.17;;
4311;SDS011;2169;49.086;9.284;2023-06-14T10:38:36;2.40;;;2.17;;
4311;SDS011;2169;49.086;9.284;2023-06-14T10:41:03;3.27;;;1.60;;
4311;SDS011;2169;49.086;9.284;2023-06-14T10:43:31;5.50;;;2.10;;
4311;SDS011;2169;49.086;9.284;2023-06-14T10:46:17;1.70;;;1.60;;
4311;SDS011;2169;49.086;9.284;2023-06-14T10:48:48;1.57;;;1.30;;
4311;SDS011;2169;49.086;9.284;2023-06-14T10:51:15;6.40;;;2.47;;
4311;SDS011;2169;49.086;9.284;2023-06-14T10:53:46;2.40;;;1.80;;
4311;SDS011;2169;49.086;9.284;2023-06-14T10:56:26;2.57;;;2.37;;
4311;SDS011;2169;49.086;9.284;2023-06-14T10:58:54;11.30;;;2.40;;
4311;SDS011;2169;49.086;9.284;2023-06-14T11:01:27;1.80;;;1.70;;
4311;SDS011;2169;49.086;9.284;2023-06-14T11:04:09;3.57;;;1.67;;
4311;SDS011;2169;49.086;9.284;2023-06-14T11:06:44;6.97;;;2.27;;
4311;SDS011;2169;49.086;9.284;2023-06-14T11:12:12;8.00;;;2.33;;
4311;SDS011;2169;49.086;9.284;2023-06-14T11:14:40;3.67;;;2.37;;
4311;SDS011;2169;49.086;9.284;2023-06-14T11:17:08;1.77;;;1.57;;
4311;SDS011;2169;49.086;9.284;2023-06-14T11:19:35;2.60;;;1.87;;
4311;SDS011;2169;49.086;9.284;2023-06-14T11:22:01;1.70;;;1.57;;
4311;SDS011;2169;49.086;9.284;2023-06-14T11:24:28;2.10;;;1.70;;
4311;SDS011;2169;49.086;9.284;2023-06-14T11:26:55;1.73;;;1.60;;
4311;SDS011;2169;49.086;9.284;2023-06-14T11:29:22;1.87;;;1.77;;
4311;SDS011;2169;49.086;9.284;2023-06-14T11:31:50;4.10;;;2.43;;
4311;SDS011;2169;49.086;9.284;2023-06-14T11:34:18;6.80;;;2.07;;
4311;SDS011;2169;49.086;9.284;2023-06-14T11:36:45;2.30;;;1.77;;
4311;SDS011;2169;49.086;9.284;2023-06-14T11:39:12;2.40;;;2.27;;
4311;SDS011;2169;49.086;9.284;2023-06-14T11:41:40;2.03;;;1.70;;
4311;SDS011;2169;49.086;9.284;2023-06-14T11:44:08;1.80;;;1.70;;
4311;SDS011;2169;49.086;9.284;2023-06-14T11:46:35;1.63;;;1.63;;
4311;SDS011;2169;49.086;9.284;2023-06-14T11:49:02;2.50;;;2.40;;
4311;SDS011;2169;49.086;9.284;2023-06-14T11:51:31;2.93;;;2.70;;
4311;SDS011;2169;49.086;9.284;2023-06-14T11:53:59;3.50;;;2.70;;
4311;SDS011;2169;49.086;9.284;2023-06-14T11:56:27;1.57;;;1.47;;
4311;SDS011;2169;49.086;9.284;2023-06-14T11:58:54;5.27;;;3.40;;
4311;SDS011;2169;49.086;9.284;2023-06-14T12:01:22;4.53;;;1.57;;
4311;SDS011;2169;49.086;9.284;2023-06-14T12:03:49;2.33;;;1.80;;
4311;SDS011;2169;49.086;9.284;2023-06-14T12:06:17;3.97;;;1.80;;
4311;SDS011;2169;49.086;9.284;2023-06-14T12:08:55;2.20;;;1.73;;
4311;SDS011;2169;49.086;9.284;2023-06-14T12:11:22;2.40;;;2.20;;
4311;SDS011;2169;49.086;9.284;2023-06-14T12:13:49;2.53;;;2.30;;
4311;SDS011;2169;49.086;9.284;2023-06-14T12:16:16;2.17;;;2.07;;
4311;SDS011;2169;49.086;9.284;2023-06-14T12:18:42;3.53;;;2.87;;
4311;SDS011;2169;49.086;9.284;2023-06-14T12:21:10;2.67;;;2.03;;
4311;SDS011;2169;49.086;9.284;2023-06-14T12:23:44;1.83;;;1.73;;
4311;SDS011;2169;49.086;9.284;2023-06-14T12:26:13;6.37;;;1.93;;
4311;SDS011;2169;49.086;9.284;2023-06-14T12:28:41;2.50;;;1.70;;
4311;SDS011;2169;49.086;9.284;2023-06-14T12:31:09;2.00;;;1.50;;
4311;SDS011;2169;49.086;9.284;2023-06-14T12:33:37;1.83;;;1.73;;
4311;SDS011;2169;49.086;9.284;2023-06-14T12:36:04;5.87;;;2.27;;
4311;SDS011;2169;49.086;9.284;2023-06-14T12:38:32;1.60;;;1.50;;
4311;SDS011;2169;49.086;9.284;2023-06-14T12:40:59;2.10;;;1.90;;
4311;SDS011;2169;49.086;9.284;2023-06-14T12:43:28;2.53;;;1.83;;
4311;SDS011;2169;49.086;9.284;2023-06-14T12:45:54;1.93;;;1.83;;
4311;SDS011;2169;49.086;9.284;2023-06-14T12:48:21;8.70;;;2.27;;
4311;SDS011;2169;49.086;9.284;2023-06-14T12:50:48;2.97;;;2.10;;
4311;SDS011;2169;49.086;9.284;2023-06-14T12:53:15;3.87;;;1.83;;
4311;SDS011;2169;49.086;9.284;2023-06-14T12:55:42;1.70;;;1.60;;
4311;SDS011;2169;49.086;9.284;2023-06-14T12:58:09;2.70;;;2.37;;
4311;SDS011;2169;49.086;9.284;2023-06-14T13:00:38;8.30;;;2.63;;
4311;SDS011;2169;49.086;9.284;2023-06-14T13:03:05;2.43;;;2.23;;
4311;SDS011;2169;49.086;9.284;2023-06-14T13:05:32;3.40;;;2.30;;
4311;SDS011;2169;49.086;9.284;2023-06-14T13:07:59;3.17;;;2.87;;
4311;SDS011;2169;49.086;9.284;2023-06-14T13:10:26;1.73;;;1.63;;
4311;SDS011;2169;49.086;9.284;2023-06-14T13:12:53;2.77;;;2.67;;
4311;SDS011;2169;49.086;9.284;2023-06-14T13:15:19;1.70;;;1.60;;
4311;SDS011;2169;49.086;9.284;2023-06-14T13:17:47;2.40;;;2.20;;
4311;SDS011;2169;49.086;9.284;2023-06-14T13:20:14;1.73;;;1.63;;
4311;SDS011;2169;49.086;9.284;2023-06-14T13:22:41;2.80;;;2.53;;
4311;SDS011;2169;49.086;9.284;2023-06-14T13:25:08;2.17;;;1.73;;
4311;SDS011;2169;49.086;9.284;2023-06-14T13:27:35;3.03;;;1.67;;
4311;SDS011;2169;49.086;9.284;2023-06-14T13:30:02;1.40;;;1.30;;
4311;SDS011;2169;49.086;9.284;2023-06-14T13:32:30;2.00;;;1.67;;
4311;SDS011;2169;49.086;9.284;2023-06-14T13:34:58;1.60;;;1.50;;
4311;SDS011;2169;49.086;9.284;2023-06-14T13:37:25;1.80;;;1.70;;
4311;SDS011;2169;49.086;9.284;2023-06-14T13:39:52;1.80;;;1.70;;
4311;SDS011;2169;49.086;9.284;2023-06-14T13:42:19;2.67;;;1.73;;
4311;SDS011;2169;49.086;9.284;2023-06-14T13:44:46;2.87;;;2.60;;
4311;SDS011;2169;49.086;9.284;2023-06-14T13:47:13;1.70;;;1.60;;
4311;SDS011;2169;49.086;9.284;2023-06-14T13:49:39;4.10;;;1.90;;
4311;SDS011;2169;49.086;9.284;2023-06-14T13:52:07;1.90;;;1.40;;
4311;SDS011;2169;49.086;9.284;2023-06-14T13:54:35;1.93;;;1.83;;
4311;SDS011;2169;49.086;9.284;2023-06-14T13:57:02;4.63;;;1.60;;
4311;SDS011;2169;49.086;9.284;2023-06-14T13:59:29;2.50;;;2.30;;
4311;SDS011;2169;49.086;9.284;2023-06-14T14:01:56;1.83;;;1.60;;
4311;SDS011;2169;49.086;9.284;2023-06-14T14:04:22;1.63;;;1.53;;
4311;SDS011;2169;49.086;9.284;2023-06-14T14:06:49;2.80;;;1.57;;
4311;SDS011;2169;49.086;9.284;2023-06-14T14:09:17;4.20;;;2.17;;
4311;SDS011;2169;49.086;9.284;2023-06-14T14:11:44;2.93;;;2.40;;
4311;SDS011;2169;49.086;9.284;2023-06-14T14:14:11;1.90;;;1.80;;
4311;SDS011;2169;49.086;9.284;2023-06-14T14:16:37;3.77;;;2.00;;
4311;SDS011;2169;49.086;9.284;2023-06-14T14:19:04;1.90;;;1.83;;
4311;SDS011;2169;49.086;9.284;2023-06-14T14:21:31;2.13;;;1.47;;
4311;SDS011;2169;49.086;9.284;2023-06-14T14:23:59;2.93;;;1.90;;
4311;SDS011;2169;49.086;9.284;2023-06-14T14:26:27;8.77;;;2.40;;
4311;SDS011;2169;49.086;9.284;2023-06-14T14:28:54;3.73;;;1.50;;
4311;SDS011;2169;49.086;9.284;2023-06-14T14:31:20;1.93;;;1.83;;
4311;SDS011;2169;49.086;9.284;2023-06-14T14:33:47;2.10;;;2.00;;
4311;SDS011;2169;49.086;9.284;2023-06-14T14:36:14;2.03;;;1.50;;
4311;SDS011;2169;49.086;9.284;2023-06-14T14:38:40;2.07;;;1.97;;
4311;SDS011;2169;49.086;9.284;2023-06-14T14:41:07;1.67;;;1.57;;
4311;SDS011;2169;49.086;9.284;2023-06-14T14:43:35;3.00;;;2.00;;
4311;SDS011;2169;49.086;9.284;2023-06-14T14:46:03;2.40;;;2.20;;
4311;SDS011;2169;49.086;9.284;2023-06-14T14:48:30;1.80;;;1.70;;
4311;SDS011;2169;49.086;9.284;2023-06-14T14:50:57;1.83;;;1.73;;
4311;SDS011;2169;49.086;9.284;2023-06-14T14:53:23;2.07;;;1.97;;
4311;SDS011;2169;49.086;9.284;2023-06-14T14:55:50;4.17;;;2.27;;
4311;SDS011;2169;49.086;9.284;2023-06-14T14:58:17;2.23;;;1.63;;
4311;SDS011;2169;49.086;9.284;2023-06-14T15:00:46;6.30;;;2.10;;
4311;SDS011;2169;49.086;9.284;2023-06-14T15:03:13;1.70;;;1.60;;
4311;SDS011;2169;49.086;9.284;2023-06-14T15:05:40;2.33;;;2.13;;
4311;SDS011;2169;49.086;9.284;2023-06-14T15:08:07;2.30;;;1.63;;
4311;SDS011;2169;49.086;9.284;2023-06-14T15:10:37;1.60;;;1.50;;
4311;SDS011;2169;49.086;9.284;2023-06-14T15:13:05;3.00;;;2.27;;
4311;SDS011;2169;49.086;9.284;2023-06-14T15:15:33;2.23;;;2.00;;
4311;SDS011;2169;49.086;9.284;2023-06-14T15:18:01;1.73;;;1.63;;
4311;SDS011;2169;49.086;9.284;2023-06-14T15:20:28;3.73;;;1.97;;
4311;SDS011;2169;49.086;9.284;2023-06-14T15:22:54;3.80;;;2.03;;